sensor_id;sensor_type;location;lat;lon;timestamp;P1;durP1;ratioP1;P2;durP2;ratioP2
27489;SDS011;14925;51.026;13.752;2023-07-02T00:00:05;3.25;;;1.73;;
27489;SDS011;14925;51.026;13.752;2023-07-02T00:02:32;2.67;;;1.70;;
27489;SDS011;14925;51.026;13.752;2023-07-02T00:04:58;3.35;;;1.58;;
27489;SDS011;14925;51.026;13.752;2023-07-02T00:07:23;2.95;;;1.63;;
27489;SDS011;14925;51.026;13.752;2023-07-02T00:09:50;2.85;;;1.70;;
27489;SDS011;14925;51.026;13.752;2023-07-02T00:12:16;3.35;;;1.65;;
27489;SDS011;14925;51.026;13.752;2023-07-02T00:14:41;3.13;;;1.70;;
27489;SDS011;14925;51.026;13.752;2023-07-02T00:17:07;2.85;;;1.70;;
27489;SDS011;14925;51.026;13.752;2023-07-02T00:19:32;4.65;;;1.52;;
27489;SDS011;14925;51.026;13.752;2023-07-02T00:21:58;1.42;;;1.33;;
27489;SDS011;14925;51.026;13.752;2023-07-02T00:24:23;3.13;;;1.55;;
27489;SDS011;14925;51.026;13.752;2023-07-02T00:26:49;2.85;;;1.48;;
27489;SDS011;14925;51.026;13.752;2023-07-02T00:29:14;2.45;;;1.50;;
27489;SDS011;14925;51.026;13.752;2023-07-02T00:31:39;3.10;;;1.42;;
27489;SDS011;14925;51.026;13.752;2023-07-02T00:34:05;3.75;;;1.40;;
27489;SDS011;14925;51.026;13.752;2023-07-02T00:36:30;2.65;;;1.40;;
27489;SDS011;14925;51.026;13.752;2023-07-02T00:38:56;3.65;;;1.52;;
27489;SDS011;14925;51.026;13.752;2023-07-02T00:41:22;2.55;;;1.33;;
27489;SDS011;14925;51.026;13.752;2023-07-02T00:43:47;1.95;;;1.17;;
27489;SDS011;14925;51.026;13.752;2023-07-02T00:46:16;3.10;;;1.23;;
27489;SDS011;14925;51.026;13.752;2023-07-02T00:48:51;2.58;;;1.40;;
27489;SDS011;14925;51.026;13.752;2023-07-02T00:51:22;2.00;;;1.30;;
27489;SDS011;14925;51.026;13.752;2023-07-02T00:53:49;1.38;;;1.20;;
27489;SDS011;14925;51.026;13.752;2023-07-02T00:56:16;2.15;;;1.20;;
27489;SDS011;14925;51.026;13.752;2023-07-02T00:58:43;1.60;;;1.30;;
27489;SDS011;14925;51.026;13.752;2023-07-02T01:01:12;2.95;;;1.50;;
27489;SDS011;14925;51.026;13.752;2023-07-02T01:03:38;2.22;;;1.30;;
27489;SDS011;14925;51.026;13.752;2023-07-02T01:06:05;2.08;;;1.10;;
27489;SDS011;14925;51.026;13.752;2023-07-02T01:08:30;4.10;;;1.10;;
27489;SDS011;14925;51.026;13.752;2023-07-02T01:10:55;1.52;;;1.10;;
27489;SDS011;14925;51.026;13.752;2023-07-02T01:13:22;4.03;;;1.13;;
27489;SDS011;14925;51.026;13.752;2023-07-02T01:15:49;2.60;;;1.50;;
27489;SDS011;14925;51.026;13.752;2023-07-02T01:18:14;1.80;;;1.10;;
27489;SDS011;14925;51.026;13.752;2023-07-02T01:20:41;1.65;;;1.30;;
27489;SDS011;14925;51.026;13.752;2023-07-02T01:23:07;1.52;;;1.17;;
27489;SDS011;14925;51.026;13.752;2023-07-02T01:25:33;1.50;;;1.27;;
27489;SDS011;14925;51.026;13.752;2023-07-02T01:28:01;1.42;;;1.10;;
27489;SDS011;14925;51.026;13.752;2023-07-02T01:30:27;1.95;;;1.20;;
27489;SDS011;14925;51.026;13.752;2023-07-02T01:32:52;2.50;;;1.25;;
27489;SDS011;14925;51.026;13.752;2023-07-02T01:35:18;3.85;;;1.08;;
27489;SDS011;14925;51.026;13.752;2023-07-02T01:37:43;1.67;;;1.17;;
27489;SDS011;14925;51.026;13.752;2023-07-02T01:40:09;1.52;;;1.20;;
27489;SDS011;14925;51.026;13.752;2023-07-02T01:42:35;2.50;;;1.30;;
27489;SDS011;14925;51.026;13.752;2023-07-02T01:45:00;1.55;;;1.20;;
27489;SDS011;14925;51.026;13.752;2023-07-02T01:47:25;1.58;;;1.35;;
27489;SDS011;14925;51.026;13.752;2023-07-02T01:49:51;1.73;;;1.25;;
27489;SDS011;14925;51.026;13.752;2023-07-02T01:52:16;2.75;;;1.10;;
27489;SDS011;14925;51.026;13.752;2023-07-02T01:54:42;2.10;;;1.27;;
27489;SDS011;14925;51.026;13.752;2023-07-02T01:57:07;1.42;;;1.08;;
27489;SDS011;14925;51.026;13.752;2023-07-02T01:59:33;2.17;;;1.30;;
27489;SDS011;14925;51.026;13.752;2023-07-02T02:01:59;1.67;;;1.10;;
27489;SDS011;14925;51.026;13.752;2023-07-02T02:04:24;1.52;;;1.23;;
27489;SDS011;14925;51.026;13.752;2023-07-02T02:06:49;2.33;;;1.10;;
27489;SDS011;14925;51.026;13.752;2023-07-02T02:09:15;2.97;;;1.33;;
27489;SDS011;14925;51.026;13.752;2023-07-02T02:11:41;1.85;;;1.30;;
27489;SDS011;14925;51.026;13.752;2023-07-02T02:14:08;2.28;;;1.30;;
27489;SDS011;14925;51.026;13.752;2023-07-02T02:16:33;4.88;;;1.42;;
27489;SDS011;14925;51.026;13.752;2023-07-02T02:18:59;2.45;;;1.33;;
27489;SDS011;14925;51.026;13.752;2023-07-02T02:21:25;2.25;;;1.45;;
27489;SDS011;14925;51.026;13.752;2023-07-02T02:23:50;1.52;;;1.10;;
27489;SDS011;14925;51.026;13.752;2023-07-02T02:26:16;1.65;;;1.30;;
27489;SDS011;14925;51.026;13.752;2023-07-02T02:28:41;2.00;;;1.60;;
27489;SDS011;14925;51.026;13.752;2023-07-02T02:31:07;1.88;;;1.38;;
27489;SDS011;14925;51.026;13.752;2023-07-02T02:33:33;2.55;;;1.70;;
27489;SDS011;14925;51.026;13.752;2023-07-02T02:36:00;2.90;;;1.83;;
27489;SDS011;14925;51.026;13.752;2023-07-02T02:38:26;3.67;;;1.85;;
27489;SDS011;14925;51.026;13.752;2023-07-02T02:40:51;3.08;;;1.60;;
27489;SDS011;14925;51.026;13.752;2023-07-02T02:43:16;3.10;;;1.80;;
27489;SDS011;14925;51.026;13.752;2023-07-02T02:45:42;1.92;;;1.63;;
27489;SDS011;14925;51.026;13.752;2023-07-02T02:48:07;2.00;;;1.65;;
27489;SDS011;14925;51.026;13.752;2023-07-02T02:50:33;2.20;;;1.50;;
27489;SDS011;14925;51.026;13.752;2023-07-02T02:52:58;4.20;;;1.40;;
27489;SDS011;14925;51.026;13.752;2023-07-02T02:55:24;3.00;;;1.20;;
27489;SDS011;14925;51.026;13.752;2023-07-02T02:57:49;2.42;;;1.30;;
27489;SDS011;14925;51.026;13.752;2023-07-02T03:00:14;2.17;;;1.40;;
27489;SDS011;14925;51.026;13.752;2023-07-02T03:02:41;2.00;;;1.40;;
27489;SDS011;14925;51.026;13.752;2023-07-02T03:05:07;2.63;;;1.40;;
27489;SDS011;14925;51.026;13.752;2023-07-02T03:07:33;2.13;;;1.45;;
27489;SDS011;14925;51.026;13.752;2023-07-02T03:09:58;2.00;;;1.42;;
27489;SDS011;14925;51.026;13.752;2023-07-02T03:12:25;3.58;;;1.48;;
27489;SDS011;14925;51.026;13.752;2023-07-02T03:14:50;2.17;;;1.33;;
27489;SDS011;14925;51.026;13.752;2023-07-02T03:17:19;3.88;;;1.38;;
27489;SDS011;14925;51.026;13.752;2023-07-02T03:19:47;4.47;;;1.67;;
27489;SDS011;14925;51.026;13.752;2023-07-02T03:22:13;1.90;;;1.40;;
27489;SDS011;14925;51.026;13.752;2023-07-02T03:24:38;2.33;;;1.60;;
27489;SDS011;14925;51.026;13.752;2023-07-02T03:27:03;2.80;;;1.45;;
27489;SDS011;14925;51.026;13.752;2023-07-02T03:29:29;1.90;;;1.30;;
27489;SDS011;14925;51.026;13.752;2023-07-02T03:31:54;3.00;;;1.50;;
27489;SDS011;14925;51.026;13.752;2023-07-02T03:34:20;2.03;;;1.35;;
27489;SDS011;14925;51.026;13.752;2023-07-02T03:36:47;2.25;;;1.40;;
27489;SDS011;14925;51.026;13.752;2023-07-02T03:39:12;2.45;;;1.48;;
27489;SDS011;14925;51.026;13.752;2023-07-02T03:41:38;3.28;;;1.40;;
27489;SDS011;14925;51.026;13.752;2023-07-02T03:44:03;3.72;;;1.40;;
27489;SDS011;14925;51.026;13.752;2023-07-02T03:46:29;2.00;;;1.25;;
27489;SDS011;14925;51.026;13.752;2023-07-02T03:48:56;3.90;;;1.40;;
27489;SDS011;14925;51.026;13.752;2023-07-02T03:51:21;2.63;;;1.40;;
27489;SDS011;14925;51.026;13.752;2023-07-02T03:53:46;2.33;;;1.30;;
27489;SDS011;14925;51.026;13.752;2023-07-02T03:56:12;2.85;;;1.55;;
27489;SDS011;14925;51.026;13.752;2023-07-02T03:58:39;2.03;;;1.58;;
27489;SDS011;14925;51.026;13.752;2023-07-02T04:01:04;2.75;;;1.80;;
27489;SDS011;14925;51.026;13.752;2023-07-02T04:03:30;5.13;;;2.15;;
27489;SDS011;14925;51.026;13.752;2023-07-02T04:05:55;3.17;;;2.03;;
27489;SDS011;14925;51.026;13.752;2023-07-02T04:08:21;3.40;;;2.17;;
27489;SDS011;14925;51.026;13.752;2023-07-02T04:10:47;3.90;;;2.00;;
27489;SDS011;14925;51.026;13.752;2023-07-02T04:13:12;5.72;;;2.28;;
27489;SDS011;14925;51.026;13.752;2023-07-02T04:15:37;2.95;;;2.40;;
27489;SDS011;14925;51.026;13.752;2023-07-02T04:18:03;4.80;;;2.28;;
27489;SDS011;14925;51.026;13.752;2023-07-02T04:20:28;2.55;;;2.10;;
27489;SDS011;14925;51.026;13.752;2023-07-02T04:22:54;3.30;;;2.40;;
27489;SDS011;14925;51.026;13.752;2023-07-02T04:25:19;2.60;;;2.17;;
27489;SDS011;14925;51.026;13.752;2023-07-02T04:27:45;3.42;;;2.10;;
27489;SDS011;14925;51.026;13.752;2023-07-02T04:30:10;3.83;;;2.35;;
27489;SDS011;14925;51.026;13.752;2023-07-02T04:32:36;2.33;;;2.00;;
27489;SDS011;14925;51.026;13.752;2023-07-02T04:35:04;4.53;;;2.30;;
27489;SDS011;14925;51.026;13.752;2023-07-02T04:37:30;5.68;;;2.90;;
27489;SDS011;14925;51.026;13.752;2023-07-02T04:39:56;5.68;;;2.38;;
27489;SDS011;14925;51.026;13.752;2023-07-02T04:42:21;6.78;;;2.47;;
27489;SDS011;14925;51.026;13.752;2023-07-02T04:44:47;3.83;;;2.58;;
27489;SDS011;14925;51.026;13.752;2023-07-02T04:47:12;3.70;;;2.10;;
27489;SDS011;14925;51.026;13.752;2023-07-02T04:49:38;4.15;;;2.35;;
27489;SDS011;14925;51.026;13.752;2023-07-02T04:52:04;6.07;;;2.55;;
27489;SDS011;14925;51.026;13.752;2023-07-02T04:54:29;6.32;;;2.15;;
27489;SDS011;14925;51.026;13.752;2023-07-02T04:56:55;2.92;;;2.38;;
27489;SDS011;14925;51.026;13.752;2023-07-02T04:59:20;4.35;;;2.40;;
27489;SDS011;14925;51.026;13.752;2023-07-02T05:01:46;4.28;;;2.60;;
27489;SDS011;14925;51.026;13.752;2023-07-02T05:04:12;5.95;;;2.28;;
27489;SDS011;14925;51.026;13.752;2023-07-02T05:06:37;5.63;;;2.60;;
27489;SDS011;14925;51.026;13.752;2023-07-02T05:09:03;3.08;;;2.33;;
27489;SDS011;14925;51.026;13.752;2023-07-02T05:11:29;5.35;;;2.70;;
27489;SDS011;14925;51.026;13.752;2023-07-02T05:13:54;5.55;;;2.95;;
27489;SDS011;14925;51.026;13.752;2023-07-02T05:16:19;5.57;;;2.25;;
27489;SDS011;14925;51.026;13.752;2023-07-02T05:18:45;8.98;;;2.55;;
27489;SDS011;14925;51.026;13.752;2023-07-02T05:21:10;7.32;;;2.85;;
27489;SDS011;14925;51.026;13.752;2023-07-02T05:23:36;5.45;;;2.50;;
27489;SDS011;14925;51.026;13.752;2023-07-02T05:26:01;6.00;;;2.60;;
27489;SDS011;14925;51.026;13.752;2023-07-02T05:28:27;4.63;;;2.60;;
27489;SDS011;14925;51.026;13.752;2023-07-02T05:30:52;4.15;;;2.17;;
27489;SDS011;14925;51.026;13.752;2023-07-02T05:33:17;5.78;;;2.50;;
27489;SDS011;14925;51.026;13.752;2023-07-02T05:35:43;3.58;;;2.70;;
27489;SDS011;14925;51.026;13.752;2023-07-02T05:38:08;4.50;;;2.50;;
27489;SDS011;14925;51.026;13.752;2023-07-02T05:40:33;5.53;;;2.30;;
27489;SDS011;14925;51.026;13.752;2023-07-02T05:42:59;3.58;;;2.40;;
27489;SDS011;14925;51.026;13.752;2023-07-02T05:45:24;2.80;;;2.50;;
27489;SDS011;14925;51.026;13.752;2023-07-02T05:47:49;4.57;;;2.40;;
27489;SDS011;14925;51.026;13.752;2023-07-02T05:50:15;5.30;;;2.50;;
27489;SDS011;14925;51.026;13.752;2023-07-02T05:52:40;5.30;;;2.50;;
27489;SDS011;14925;51.026;13.752;2023-07-02T05:55:07;4.43;;;2.17;;
27489;SDS011;14925;51.026;13.752;2023-07-02T05:57:35;3.72;;;2.35;;
27489;SDS011;14925;51.026;13.752;2023-07-02T06:00:01;4.25;;;2.10;;
27489;SDS011;14925;51.026;13.752;2023-07-02T06:02:26;2.45;;;2.08;;
27489;SDS011;14925;51.026;13.752;2023-07-02T06:04:52;4.20;;;2.45;;
27489;SDS011;14925;51.026;13.752;2023-07-02T06:07:17;3.50;;;2.03;;
27489;SDS011;14925;51.026;13.752;2023-07-02T06:09:42;3.40;;;2.60;;
27489;SDS011;14925;51.026;13.752;2023-07-02T06:12:08;2.47;;;2.28;;
27489;SDS011;14925;51.026;13.752;2023-07-02T06:14:33;4.57;;;2.60;;
27489;SDS011;14925;51.026;13.752;2023-07-02T06:16:59;5.20;;;2.13;;
27489;SDS011;14925;51.026;13.752;2023-07-02T06:19:25;3.60;;;2.15;;
27489;SDS011;14925;51.026;13.752;2023-07-02T06:21:51;3.95;;;2.40;;
27489;SDS011;14925;51.026;13.752;2023-07-02T06:24:16;3.75;;;2.40;;
27489;SDS011;14925;51.026;13.752;2023-07-02T06:26:42;3.40;;;2.55;;
27489;SDS011;14925;51.026;13.752;2023-07-02T06:29:07;6.50;;;2.55;;
27489;SDS011;14925;51.026;13.752;2023-07-02T06:31:32;4.78;;;2.20;;
27489;SDS011;14925;51.026;13.752;2023-07-02T06:33:58;6.82;;;2.53;;
27489;SDS011;14925;51.026;13.752;2023-07-02T06:36:25;2.85;;;2.40;;
27489;SDS011;14925;51.026;13.752;2023-07-02T06:38:51;5.35;;;3.00;;
27489;SDS011;14925;51.026;13.752;2023-07-02T06:41:16;4.57;;;2.55;;
27489;SDS011;14925;51.026;13.752;2023-07-02T06:43:42;6.85;;;2.58;;
27489;SDS011;14925;51.026;13.752;2023-07-02T06:46:09;3.65;;;2.60;;
27489;SDS011;14925;51.026;13.752;2023-07-02T06:48:35;5.15;;;2.45;;
27489;SDS011;14925;51.026;13.752;2023-07-02T06:51:01;4.18;;;2.50;;
27489;SDS011;14925;51.026;13.752;2023-07-02T06:53:26;3.17;;;2.20;;
27489;SDS011;14925;51.026;13.752;2023-07-02T06:55:52;4.85;;;2.67;;
27489;SDS011;14925;51.026;13.752;2023-07-02T06:58:17;6.40;;;2.30;;
27489;SDS011;14925;51.026;13.752;2023-07-02T07:00:45;4.38;;;2.10;;
27489;SDS011;14925;51.026;13.752;2023-07-02T07:03:10;4.35;;;2.40;;
27489;SDS011;14925;51.026;13.752;2023-07-02T07:05:56;2.67;;;2.40;;
27489;SDS011;14925;51.026;13.752;2023-07-02T07:08:23;6.18;;;2.55;;
27489;SDS011;14925;51.026;13.752;2023-07-02T07:10:49;5.43;;;2.70;;
27489;SDS011;14925;51.026;13.752;2023-07-02T07:13:15;3.95;;;2.40;;
27489;SDS011;14925;51.026;13.752;2023-07-02T07:15:43;4.60;;;2.40;;
27489;SDS011;14925;51.026;13.752;2023-07-02T07:18:09;3.40;;;2.15;;
27489;SDS011;14925;51.026;13.752;2023-07-02T07:20:35;4.13;;;2.08;;
27489;SDS011;14925;51.026;13.752;2023-07-02T07:23:02;3.72;;;2.47;;
27489;SDS011;14925;51.026;13.752;2023-07-02T07:25:28;5.75;;;3.10;;
27489;SDS011;14925;51.026;13.752;2023-07-02T07:27:55;6.00;;;2.90;;
27489;SDS011;14925;51.026;13.752;2023-07-02T07:30:20;3.58;;;3.08;;
27489;SDS011;14925;51.026;13.752;2023-07-02T07:32:52;4.00;;;2.75;;
27489;SDS011;14925;51.026;13.752;2023-07-02T07:35:18;4.97;;;2.72;;
27489;SDS011;14925;51.026;13.752;2023-07-02T07:37:45;5.63;;;3.38;;
27489;SDS011;14925;51.026;13.752;2023-07-02T07:40:10;4.78;;;2.90;;
27489;SDS011;14925;51.026;13.752;2023-07-02T07:42:37;3.40;;;3.10;;
27489;SDS011;14925;51.026;13.752;2023-07-02T07:45:02;4.78;;;3.30;;
27489;SDS011;14925;51.026;13.752;2023-07-02T07:47:28;7.10;;;2.80;;
27489;SDS011;14925;51.026;13.752;2023-07-02T07:49:54;3.75;;;2.30;;
27489;SDS011;14925;51.026;13.752;2023-07-02T07:52:20;5.38;;;2.95;;
27489;SDS011;14925;51.026;13.752;2023-07-02T07:54:45;3.45;;;2.60;;
27489;SDS011;14925;51.026;13.752;2023-07-02T07:57:10;4.25;;;2.40;;
27489;SDS011;14925;51.026;13.752;2023-07-02T07:59:36;2.78;;;2.00;;
27489;SDS011;14925;51.026;13.752;2023-07-02T08:02:01;3.25;;;2.17;;
27489;SDS011;14925;51.026;13.752;2023-07-02T08:04:27;3.38;;;2.10;;
27489;SDS011;14925;51.026;13.752;2023-07-02T08:06:53;2.42;;;2.20;;
27489;SDS011;14925;51.026;13.752;2023-07-02T08:09:19;2.10;;;1.90;;
27489;SDS011;14925;51.026;13.752;2023-07-02T08:11:45;2.80;;;2.35;;
27489;SDS011;14925;51.026;13.752;2023-07-02T08:14:11;4.70;;;1.80;;
27489;SDS011;14925;51.026;13.752;2023-07-02T08:16:36;4.18;;;1.95;;
27489;SDS011;14925;51.026;13.752;2023-07-02T08:19:02;3.33;;;1.77;;
27489;SDS011;14925;51.026;13.752;2023-07-02T08:21:27;2.42;;;1.95;;
27489;SDS011;14925;51.026;13.752;2023-07-02T08:23:52;3.55;;;2.00;;
27489;SDS011;14925;51.026;13.752;2023-07-02T08:26:18;3.60;;;1.90;;
27489;SDS011;14925;51.026;13.752;2023-07-02T08:28:43;6.07;;;2.22;;
27489;SDS011;14925;51.026;13.752;2023-07-02T08:31:09;3.63;;;2.10;;
27489;SDS011;14925;51.026;13.752;2023-07-02T08:33:34;3.08;;;1.80;;
27489;SDS011;14925;51.026;13.752;2023-07-02T08:36:00;1.70;;;1.60;;
27489;SDS011;14925;51.026;13.752;2023-07-02T08:38:26;2.75;;;1.73;;
27489;SDS011;14925;51.026;13.752;2023-07-02T08:40:51;2.78;;;1.90;;
27489;SDS011;14925;51.026;13.752;2023-07-02T08:43:17;2.35;;;1.80;;
27489;SDS011;14925;51.026;13.752;2023-07-02T08:45:44;5.90;;;2.00;;
27489;SDS011;14925;51.026;13.752;2023-07-02T08:48:10;4.15;;;2.10;;
27489;SDS011;14925;51.026;13.752;2023-07-02T08:50:35;3.80;;;1.75;;
27489;SDS011;14925;51.026;13.752;2023-07-02T08:53:01;2.70;;;1.85;;
27489;SDS011;14925;51.026;13.752;2023-07-02T08:55:26;5.75;;;1.75;;
27489;SDS011;14925;51.026;13.752;2023-07-02T08:57:55;4.50;;;2.10;;
27489;SDS011;14925;51.026;13.752;2023-07-02T09:00:22;4.45;;;2.20;;
27489;SDS011;14925;51.026;13.752;2023-07-02T09:02:47;2.38;;;1.90;;
27489;SDS011;14925;51.026;13.752;2023-07-02T09:05:13;3.58;;;1.80;;
27489;SDS011;14925;51.026;13.752;2023-07-02T09:07:45;5.45;;;2.00;;
27489;SDS011;14925;51.026;13.752;2023-07-02T09:10:11;3.17;;;1.60;;
27489;SDS011;14925;51.026;13.752;2023-07-02T09:12:37;3.63;;;2.00;;
27489;SDS011;14925;51.026;13.752;2023-07-02T09:15:04;2.50;;;1.88;;
27489;SDS011;14925;51.026;13.752;2023-07-02T09:17:35;2.08;;;1.65;;
27489;SDS011;14925;51.026;13.752;2023-07-02T09:20:02;3.30;;;1.60;;
27489;SDS011;14925;51.026;13.752;2023-07-02T09:22:33;3.50;;;1.55;;
27489;SDS011;14925;51.026;13.752;2023-07-02T09:25:02;3.05;;;1.80;;
27489;SDS011;14925;51.026;13.752;2023-07-02T09:27:37;2.88;;;1.73;;
27489;SDS011;14925;51.026;13.752;2023-07-02T09:32:38;2.20;;;1.60;;
27489;SDS011;14925;51.026;13.752;2023-07-02T09:35:03;1.92;;;1.50;;
27489;SDS011;14925;51.026;13.752;2023-07-02T09:37:30;3.10;;;1.73;;
27489;SDS011;14925;51.026;13.752;2023-07-02T09:39:55;2.70;;;1.55;;
27489;SDS011;14925;51.026;13.752;2023-07-02T09:42:21;1.63;;;1.50;;
27489;SDS011;14925;51.026;13.752;2023-07-02T09:44:47;4.32;;;1.70;;
27489;SDS011;14925;51.026;13.752;2023-07-02T09:47:14;2.60;;;1.40;;
27489;SDS011;14925;51.026;13.752;2023-07-02T09:49:49;2.25;;;1.42;;
27489;SDS011;14925;51.026;13.752;2023-07-02T09:52:18;3.08;;;1.67;;
27489;SDS011;14925;51.026;13.752;2023-07-02T09:54:45;4.65;;;1.77;;
27489;SDS011;14925;51.026;13.752;2023-07-02T09:57:10;2.85;;;1.58;;
27489;SDS011;14925;51.026;13.752;2023-07-02T09:59:36;2.15;;;1.52;;
27489;SDS011;14925;51.026;13.752;2023-07-02T10:02:02;1.80;;;1.50;;
27489;SDS011;14925;51.026;13.752;2023-07-02T10:04:28;2.33;;;1.50;;
27489;SDS011;14925;51.026;13.752;2023-07-02T10:07:04;2.95;;;1.52;;
27489;SDS011;14925;51.026;13.752;2023-07-02T10:09:37;1.80;;;1.70;;
27489;SDS011;14925;51.026;13.752;2023-07-02T10:12:19;1.35;;;1.20;;
27489;SDS011;14925;51.026;13.752;2023-07-02T10:14:46;2.20;;;1.50;;
27489;SDS011;14925;51.026;13.752;2023-07-02T10:17:26;2.78;;;1.55;;
27489;SDS011;14925;51.026;13.752;2023-07-02T10:19:53;2.00;;;1.65;;
27489;SDS011;14925;51.026;13.752;2023-07-02T10:22:20;4.43;;;1.77;;
27489;SDS011;14925;51.026;13.752;2023-07-02T10:27:17;2.90;;;1.60;;
27489;SDS011;14925;51.026;13.752;2023-07-02T10:29:49;3.08;;;1.83;;
27489;SDS011;14925;51.026;13.752;2023-07-02T10:32:14;5.07;;;1.80;;
27489;SDS011;14925;51.026;13.752;2023-07-02T10:34:51;3.60;;;1.80;;
27489;SDS011;14925;51.026;13.752;2023-07-02T10:37:16;5.40;;;1.88;;
27489;SDS011;14925;51.026;13.752;2023-07-02T10:39:42;2.03;;;1.70;;
27489;SDS011;14925;51.026;13.752;2023-07-02T10:42:08;2.55;;;1.42;;
27489;SDS011;14925;51.026;13.752;2023-07-02T10:44:34;2.25;;;1.50;;
27489;SDS011;14925;51.026;13.752;2023-07-02T10:47:00;2.38;;;1.52;;
27489;SDS011;14925;51.026;13.752;2023-07-02T10:49:32;4.90;;;1.70;;
27489;SDS011;14925;51.026;13.752;2023-07-02T10:52:01;3.08;;;1.48;;
27489;SDS011;14925;51.026;13.752;2023-07-02T10:54:45;3.88;;;1.88;;
27489;SDS011;14925;51.026;13.752;2023-07-02T10:57:15;2.30;;;1.50;;
27489;SDS011;14925;51.026;13.752;2023-07-02T10:59:47;2.13;;;1.50;;
27489;SDS011;14925;51.026;13.752;2023-07-02T11:02:14;4.90;;;1.58;;
27489;SDS011;14925;51.026;13.752;2023-07-02T11:04:39;2.58;;;1.60;;
27489;SDS011;14925;51.026;13.752;2023-07-02T11:07:05;1.65;;;1.52;;
27489;SDS011;14925;51.026;13.752;2023-07-02T11:09:30;1.85;;;1.50;;
27489;SDS011;14925;51.026;13.752;2023-07-02T11:11:57;2.40;;;1.60;;
27489;SDS011;14925;51.026;13.752;2023-07-02T11:14:30;4.10;;;1.85;;
27489;SDS011;14925;51.026;13.752;2023-07-02T11:16:56;4.45;;;1.70;;
27489;SDS011;14925;51.026;13.752;2023-07-02T11:19:22;3.00;;;1.40;;
27489;SDS011;14925;51.026;13.752;2023-07-02T11:21:55;3.30;;;1.67;;
27489;SDS011;14925;51.026;13.752;2023-07-02T11:26:57;1.75;;;1.50;;
27489;SDS011;14925;51.026;13.752;2023-07-02T11:29:23;3.80;;;1.55;;
27489;SDS011;14925;51.026;13.752;2023-07-02T11:31:48;2.65;;;1.80;;
27489;SDS011;14925;51.026;13.752;2023-07-02T11:34:14;3.00;;;1.33;;
27489;SDS011;14925;51.026;13.752;2023-07-02T11:36:40;4.38;;;1.55;;
27489;SDS011;14925;51.026;13.752;2023-07-02T11:39:06;3.33;;;1.50;;
27489;SDS011;14925;51.026;13.752;2023-07-02T11:41:44;2.53;;;1.42;;
27489;SDS011;14925;51.026;13.752;2023-07-02T11:44:09;2.95;;;1.60;;
27489;SDS011;14925;51.026;13.752;2023-07-02T11:46:35;1.83;;;1.60;;
27489;SDS011;14925;51.026;13.752;2023-07-02T11:49:03;3.05;;;1.60;;
27489;SDS011;14925;51.026;13.752;2023-07-02T11:51:30;7.07;;;1.63;;
27489;SDS011;14925;51.026;13.752;2023-07-02T11:53:56;4.38;;;1.55;;
27489;SDS011;14925;51.026;13.752;2023-07-02T11:56:22;3.45;;;1.40;;
27489;SDS011;14925;51.026;13.752;2023-07-02T11:58:47;4.85;;;1.35;;
27489;SDS011;14925;51.026;13.752;2023-07-02T12:01:12;4.05;;;1.50;;
27489;SDS011;14925;51.026;13.752;2023-07-02T12:03:38;3.55;;;1.50;;
27489;SDS011;14925;51.026;13.752;2023-07-02T12:06:03;4.35;;;1.55;;
27489;SDS011;14925;51.026;13.752;2023-07-02T12:08:28;3.90;;;1.65;;
27489;SDS011;14925;51.026;13.752;2023-07-02T12:10:54;3.60;;;1.98;;
27489;SDS011;14925;51.026;13.752;2023-07-02T12:13:19;2.58;;;1.90;;
27489;SDS011;14925;51.026;13.752;2023-07-02T12:15:46;2.75;;;1.77;;
27489;SDS011;14925;51.026;13.752;2023-07-02T12:18:12;3.20;;;1.73;;
27489;SDS011;14925;51.026;13.752;2023-07-02T12:20:38;2.20;;;1.60;;
27489;SDS011;14925;51.026;13.752;2023-07-02T12:23:04;3.85;;;2.20;;
27489;SDS011;14925;51.026;13.752;2023-07-02T12:25:30;5.57;;;1.98;;
27489;SDS011;14925;51.026;13.752;2023-07-02T12:27:56;3.13;;;2.10;;
27489;SDS011;14925;51.026;13.752;2023-07-02T12:30:21;4.53;;;2.15;;
27489;SDS011;14925;51.026;13.752;2023-07-02T12:32:47;2.63;;;2.10;;
27489;SDS011;14925;51.026;13.752;2023-07-02T12:35:12;4.13;;;2.10;;
27489;SDS011;14925;51.026;13.752;2023-07-02T12:37:49;6.07;;;2.20;;
27489;SDS011;14925;51.026;13.752;2023-07-02T12:40:15;4.13;;;2.10;;
27489;SDS011;14925;51.026;13.752;2023-07-02T12:42:41;2.70;;;1.90;;
27489;SDS011;14925;51.026;13.752;2023-07-02T12:45:07;3.95;;;2.25;;
27489;SDS011;14925;51.026;13.752;2023-07-02T12:47:33;2.75;;;2.10;;
27489;SDS011;14925;51.026;13.752;2023-07-02T12:49:59;3.65;;;2.22;;
27489;SDS011;14925;51.026;13.752;2023-07-02T12:52:24;6.78;;;2.13;;
27489;SDS011;14925;51.026;13.752;2023-07-02T12:54:49;3.78;;;2.33;;
27489;SDS011;14925;51.026;13.752;2023-07-02T12:57:15;5.75;;;2.10;;
27489;SDS011;14925;51.026;13.752;2023-07-02T12:59:42;5.22;;;2.17;;
27489;SDS011;14925;51.026;13.752;2023-07-02T13:02:07;2.95;;;2.10;;
27489;SDS011;14925;51.026;13.752;2023-07-02T13:04:34;4.28;;;2.10;;
27489;SDS011;14925;51.026;13.752;2023-07-02T13:06:59;6.55;;;2.33;;
27489;SDS011;14925;51.026;13.752;2023-07-02T13:09:25;4.70;;;1.92;;
27489;SDS011;14925;51.026;13.752;2023-07-02T13:11:50;5.20;;;2.03;;
27489;SDS011;14925;51.026;13.752;2023-07-02T13:14:15;5.45;;;2.25;;
27489;SDS011;14925;51.026;13.752;2023-07-02T13:16:42;3.97;;;2.03;;
27489;SDS011;14925;51.026;13.752;2023-07-02T13:19:07;4.53;;;1.98;;
27489;SDS011;14925;51.026;13.752;2023-07-02T13:21:33;4.95;;;2.08;;
27489;SDS011;14925;51.026;13.752;2023-07-02T13:23:58;7.20;;;2.40;;
27489;SDS011;14925;51.026;13.752;2023-07-02T13:26:23;8.65;;;2.75;;
27489;SDS011;14925;51.026;13.752;2023-07-02T13:28:49;10.65;;;3.20;;
27489;SDS011;14925;51.026;13.752;2023-07-02T13:31:14;9.38;;;3.10;;
27489;SDS011;14925;51.026;13.752;2023-07-02T13:33:40;9.90;;;3.00;;
27489;SDS011;14925;51.026;13.752;2023-07-02T13:36:06;4.53;;;2.88;;
27489;SDS011;14925;51.026;13.752;2023-07-02T13:38:32;7.82;;;3.05;;
27489;SDS011;14925;51.026;13.752;2023-07-02T13:40:57;7.45;;;3.00;;
27489;SDS011;14925;51.026;13.752;2023-07-02T13:43:23;6.30;;;3.00;;
27489;SDS011;14925;51.026;13.752;2023-07-02T13:45:48;6.45;;;2.88;;
27489;SDS011;14925;51.026;13.752;2023-07-02T13:48:14;6.70;;;2.95;;
27489;SDS011;14925;51.026;13.752;2023-07-02T13:50:39;8.73;;;3.10;;
27489;SDS011;14925;51.026;13.752;2023-07-02T13:53:05;6.10;;;3.03;;
27489;SDS011;14925;51.026;13.752;2023-07-02T13:55:30;7.90;;;3.33;;
27489;SDS011;14925;51.026;13.752;2023-07-02T13:57:56;4.55;;;2.88;;
27489;SDS011;14925;51.026;13.752;2023-07-02T14:00:22;10.70;;;2.70;;
27489;SDS011;14925;51.026;13.752;2023-07-02T14:02:48;7.20;;;2.80;;
27489;SDS011;14925;51.026;13.752;2023-07-02T14:05:13;4.85;;;2.63;;
27489;SDS011;14925;51.026;13.752;2023-07-02T14:07:39;3.70;;;2.50;;
27489;SDS011;14925;51.026;13.752;2023-07-02T14:10:04;3.72;;;2.40;;
27489;SDS011;14925;51.026;13.752;2023-07-02T14:12:30;4.45;;;2.72;;
27489;SDS011;14925;51.026;13.752;2023-07-02T14:14:55;5.03;;;2.85;;
27489;SDS011;14925;51.026;13.752;2023-07-02T14:17:21;5.85;;;2.80;;
27489;SDS011;14925;51.026;13.752;2023-07-02T14:19:46;5.90;;;3.10;;
27489;SDS011;14925;51.026;13.752;2023-07-02T14:22:12;6.57;;;3.03;;
27489;SDS011;14925;51.026;13.752;2023-07-02T14:24:37;7.40;;;3.03;;
27489;SDS011;14925;51.026;13.752;2023-07-02T14:27:03;6.28;;;3.05;;
27489;SDS011;14925;51.026;13.752;2023-07-02T14:29:29;7.18;;;3.00;;
27489;SDS011;14925;51.026;13.752;2023-07-02T14:31:54;7.35;;;3.28;;
27489;SDS011;14925;51.026;13.752;2023-07-02T14:34:19;11.00;;;3.30;;